Time;durP1;ratioP1;P1;durP2;ratioP2;P2;SDS_P1;SDS_P2;PMS_P1;PMS_P2;Temp;Humidity;BMP_temperature;BMP_pressure;BME280_temperature;BME280_humidity;BME280_pressure;Samples;Min_cycle;Max_cycle;Signal;HPM_P1;HPM_P2
2022/11/04 00:00:03;;;;;;;1.45;0.90;;;10.80;88.30;;;;;;5053982;28;20040;-38
2022/11/04 00:02:29;;;;;;;1.13;1.02;;;10.80;88.40;;;;;;5051791;28;20037;-39
2022/11/04 00:04:54;;;;;;;1.65;0.98;;;10.70;88.40;;;;;;5052822;28;20353;-39
2022/11/04 00:10:04;;;;;;;3.28;1.00;;;10.60;88.60;;;;;;5053376;28;20059;-39
2022/11/04 00:12:30;;;;;;;3.65;1.25;;;10.70;88.60;;;;;;5053286;28;20040;-39
2022/11/04 00:17:18;;;;;;;7.68;1.38;;;10.60;88.60;;;;;;5052921;28;20021;-38
2022/11/04 00:17:41;;;;;;;3.45;1.20;;;10.70;88.60;;;;;;5052801;28;20021;-39
2022/11/04 00:33:52;;;;;;;4.47;1.45;;;10.60;87.30;;;;;;5058189;28;20036;-41
2022/11/04 00:36:18;;;;;;;1.27;1.17;;;10.70;86.70;;;;;;5056786;28;20044;-41
2022/11/04 00:38:44;;;;;;;4.03;1.35;;;10.60;86.80;;;;;;5058679;28;20076;-39
2022/11/04 00:41:25;;;;;;;1.85;1.25;;;10.70;86.10;;;;;;5058908;28;20416;-40
2022/11/04 00:43:59;;;;;;;1.48;1.17;;;10.70;86.10;;;;;;5058334;28;20025;-39
2022/11/04 00:46:26;;;;;;;2.22;1.58;;;10.70;86.10;;;;;;5058959;28;20097;-39
2022/11/04 00:48:52;;;;;;;1.25;1.10;;;10.70;86.10;;;;;;5059782;28;20018;-40
2022/11/04 00:51:18;;;;;;;1.60;1.40;;;10.60;86.30;;;;;;5059206;28;20053;-40
2022/11/04 00:53:44;;;;;;;2.53;1.83;;;10.70;86.20;;;;;;5058472;28;20558;-41
2022/11/04 00:56:10;;;;;;;4.53;1.85;;;10.70;86.10;;;;;;5056785;28;20021;-40
2022/11/04 00:58:36;;;;;;;2.13;1.92;;;10.70;86.40;;;;;;5057726;28;20060;-39
2022/11/04 01:01:10;;;;;;;4.43;1.98;;;10.70;86.10;;;;;;5056050;28;20025;-39
2022/11/04 01:03:37;;;;;;;2.42;1.50;;;10.70;86.10;;;;;;5040009;28;20074;-40
2022/11/04 01:06:03;;;;;;;3.65;2.00;;;10.80;86.00;;;;;;5055395;28;20098;-38
2022/11/04 01:08:29;;;;;;;3.58;2.00;;;10.80;86.00;;;;;;5056965;28;20021;-39
2022/11/04 01:10:54;;;;;;;2.95;1.77;;;10.80;85.80;;;;;;5056280;28;20043;-39
2022/11/04 01:13:20;;;;;;;2.25;1.60;;;10.80;85.80;;;;;;5056702;28;20028;-39
2022/11/04 01:15:46;;;;;;;2.95;1.95;;;10.80;85.80;;;;;;5057231;28;20037;-39
2022/11/04 01:18:11;;;;;;;3.38;2.15;;;10.80;85.80;;;;;;5056563;28;20033;-41
2022/11/04 01:20:37;;;;;;;2.20;1.85;;;10.80;85.40;;;;;;5056020;28;20076;-40
2022/11/04 01:23:02;;;;;;;6.40;2.15;;;10.80;85.50;;;;;;5056020;28;20021;-38
2022/11/04 01:25:28;;;;;;;5.35;2.10;;;10.80;85.20;;;;;;5056055;28;20021;-39
2022/11/04 01:27:55;;;;;;;3.72;2.30;;;10.80;85.50;;;;;;5055816;28;20025;-40
2022/11/04 01:30:20;;;;;;;3.58;2.60;;;10.80;85.10;;;;;;5055875;28;20024;-38
2022/11/04 01:32:46;;;;;;;4.50;2.40;;;10.90;84.80;;;;;;5055742;28;20017;-38
2022/11/04 01:35:12;;;;;;;3.17;1.98;;;10.80;85.40;;;;;;5055892;28;20476;-39
2022/11/04 01:37:37;;;;;;;4.63;2.47;;;10.80;85.70;;;;;;5053904;28;20075;-40
2022/11/04 01:40:03;;;;;;;6.68;3.20;;;10.70;86.30;;;;;;5055317;28;20028;-39
2022/11/04 01:42:29;;;;;;;4.35;2.53;;;10.70;86.80;;;;;;5055521;28;20029;-40
2022/11/04 01:44:59;;;;;;;3.00;2.22;;;10.70;86.80;;;;;;5054335;28;20023;-38
2022/11/04 01:47:39;;;;;;;3.25;2.80;;;10.70;87.00;;;;;;5055360;28;20031;-39
2022/11/04 01:50:12;;;;;;;3.50;2.30;;;10.70;87.30;;;;;;5055860;28;20021;-39
2022/11/04 01:52:48;;;;;;;3.90;3.25;;;10.70;87.50;;;;;;5055669;28;20104;-39
2022/11/04 01:55:21;;;;;;;5.25;3.50;;;10.70;87.60;;;;;;5055429;28;20021;-39
2022/11/04 01:57:49;;;;;;;5.90;3.78;;;10.70;87.70;;;;;;5055656;28;20181;-38
2022/11/04 02:00:16;;;;;;;5.15;3.70;;;10.70;87.60;;;;;;5055152;28;20021;-40
2022/11/04 02:02:57;;;;;;;5.93;4.00;;;10.70;87.70;;;;;;5053549;28;20115;-40
2022/11/04 02:05:23;;;;;;;6.25;3.75;;;10.70;87.70;;;;;;5055123;28;20128;-39
2022/11/04 02:07:53;;;;;;;4.30;3.42;;;10.70;87.70;;;;;;5055191;28;20108;-39
2022/11/04 02:10:22;;;;;;;3.70;3.30;;;10.70;88.00;;;;;;5055116;28;20028;-39
2022/11/04 02:12:51;;;;;;;4.85;3.63;;;10.80;87.80;;;;;;5054627;28;20263;-40
2022/11/04 02:15:44;;;;;;;10.35;4.45;;;10.80;87.60;;;;;;5054957;28;20025;-39
2022/11/04 02:18:27;;;;;;;5.40;3.78;;;10.80;87.70;;;;;;5054880;28;20021;-40
2022/11/04 02:21:09;;;;;;;11.50;5.25;;;10.70;87.30;;;;;;5054747;28;20021;-39
2022/11/04 02:24:11;;;;;;;6.95;3.72;;;10.70;87.10;;;;;;5054876;28;20453;-38
2022/11/04 02:26:52;;;;;;;6.82;4.05;;;10.80;87.00;;;;;;5053299;28;20068;-40
2022/11/04 02:32:33;;;;;;;7.93;3.67;;;10.70;87.00;;;;;;5054409;28;19911;-38
2022/11/04 02:35:26;;;;;;;5.22;3.90;;;10.70;86.50;;;;;;5055014;28;20021;-39
2022/11/04 02:38:12;;;;;;;8.48;3.67;;;10.60;86.80;;;;;;5054570;28;20067;-38
2022/11/04 02:40:49;;;;;;;5.72;3.33;;;10.60;86.70;;;;;;5054267;28;20021;-39
2022/11/04 02:43:34;;;;;;;5.47;3.60;;;10.60;87.00;;;;;;5054308;28;20078;-38
2022/11/04 02:46:23;;;;;;;7.35;3.90;;;10.50;87.30;;;;;;5054236;28;20028;-39
2022/11/04 02:48:59;;;;;;;4.53;3.15;;;10.50;87.20;;;;;;5053036;28;20111;-38
2022/11/04 02:51:50;;;;;;;4.82;3.17;;;10.50;86.90;;;;;;5053491;28;20071;-38
2022/11/04 02:54:42;;;;;;;6.60;3.78;;;10.50;86.60;;;;;;5043930;28;20444;-39
2022/11/04 02:57:12;;;;;;;6.25;3.78;;;10.40;86.70;;;;;;5054002;28;20041;-38
2022/11/04 02:59:43;;;;;;;;;;;10.50;86.60;;;;;;5054723;28;20063;-38
2022/11/04 03:02:21;;;;;;;8.00;3.33;;;10.60;86.50;;;;;;5054003;28;19905;-39
2022/11/04 03:04:51;;;;;;;5.03;2.50;;;10.60;86.80;;;;;;5053894;28;20508;-39
2022/11/04 03:07:26;;;;;;;3.97;3.00;;;10.60;86.90;;;;;;5053827;28;20111;-39
2022/11/04 03:09:57;;;;;;;10.52;3.50;;;10.60;86.90;;;;;;5053752;28;20032;-38
2022/11/04 03:12:28;;;;;;;9.82;4.18;;;10.60;87.00;;;;;;5053959;28;20021;-39
2022/11/04 03:15:03;;;;;;;5.70;3.38;;;10.50;87.00;;;;;;5054041;28;20115;-40
2022/11/04 03:17:37;;;;;;;8.43;3.95;;;10.60;86.90;;;;;;5037236;28;20113;-38
2022/11/04 03:20:08;;;;;;;5.35;3.13;;;10.60;86.90;;;;;;5054203;28;20473;-41
2022/11/04 03:22:38;;;;;;;17.08;2.78;;;10.60;86.90;;;;;;5053373;28;20094;-40
2022/11/04 03:25:06;;;;;;;8.13;2.55;;;10.50;86.60;;;;;;5054126;28;20039;-38
2022/11/04 03:27:41;;;;;;;3.30;2.45;;;10.50;86.80;;;;;;5053694;28;20201;-42
2022/11/04 03:30:13;;;;;;;3.22;2.17;;;10.40;87.10;;;;;;5053840;28;20112;-39
2022/11/04 03:33:13;;;;;;;5.43;2.15;;;10.30;87.20;;;;;;5053490;28;20044;-41
2022/11/04 03:35:39;;;;;;;16.20;3.35;;;10.30;87.10;;;;;;5053733;28;20025;-38
2022/11/04 03:38:04;;;;;;;4.80;1.70;;;10.20;87.10;;;;;;5053590;28;20032;-38
2022/11/04 03:40:30;;;;;;;4.10;1.83;;;10.20;87.30;;;;;;5053249;28;20465;-38
2022/11/04 03:43:20;;;;;;;3.55;2.50;;;10.20;87.30;;;;;;5053188;28;20047;-38
2022/11/04 03:45:46;;;;;;;6.20;1.85;;;10.10;87.40;;;;;;5052874;28;20037;-38
2022/11/04 03:48:14;;;;;;;5.88;1.70;;;10.00;87.60;;;;;;5053399;28;20029;-38
2022/11/04 03:50:42;;;;;;;6.50;2.08;;;9.90;87.70;;;;;;5053257;28;20075;-40
2022/11/04 03:53:09;;;;;;;9.68;2.40;;;9.90;87.80;;;;;;5053405;28;20542;-39
2022/11/04 03:56:02;;;;;;;6.75;1.45;;;9.80;87.90;;;;;;5053102;28;20155;-39
2022/11/04 03:58:57;;;;;;;4.15;1.52;;;9.80;88.10;;;;;;5052651;28;20570;-39
2022/11/04 04:01:31;;;;;;;5.63;2.53;;;9.70;88.10;;;;;;5051831;28;20377;-39
2022/11/04 04:04:07;;;;;;;4.45;1.63;;;9.80;87.80;;;;;;5053268;28;20032;-38
2022/11/04 04:06:35;;;;;;;2.55;1.75;;;9.70;87.80;;;;;;5052673;28;20095;-39
2022/11/04 04:09:20;;;;;;;5.95;1.67;;;9.70;87.80;;;;;;5053001;28;20030;-38
2022/11/04 04:12:00;;;;;;;4.78;1.48;;;9.70;87.70;;;;;;5052572;28;20017;-38
2022/11/04 04:14:40;;;;;;;10.23;3.58;;;9.80;87.60;;;;;;5053208;28;20052;-39
2022/11/04 04:17:45;;;;;;;4.70;1.50;;;9.80;87.60;;;;;;5052786;28;20101;-40
2022/11/04 04:20:21;;;;;;;5.53;1.48;;;9.80;87.70;;;;;;5040860;28;20037;-38
2022/11/04 04:28:52;;;;;;;16.30;3.92;;;9.70;87.80;;;;;;5053144;28;20037;-39
2022/11/04 04:31:48;;;;;;;6.10;1.83;;;9.60;88.00;;;;;;5051468;28;20477;-39
2022/11/04 04:34:05;;;;;;;20.63;2.88;;;9.50;88.20;;;;;;5052589;28;20420;-38
2022/11/04 04:36:38;;;;;;;4.47;1.45;;;9.50;88.40;;;;;;5053044;28;20025;-40
2022/11/04 04:44:58;;;;;;;5.38;1.40;;;9.40;88.20;;;;;;5053289;28;20146;-38
2022/11/04 04:47:28;;;;;;;5.40;1.73;;;9.40;88.30;;;;;;5051151;28;20449;-38
2022/11/04 04:49:57;;;;;;;4.83;1.63;;;9.40;88.20;;;;;;5053048;28;20021;-39
2022/11/04 04:52:26;;;;;;;7.13;2.03;;;9.30;88.20;;;;;;5052492;28;20032;-39
2022/11/04 04:54:52;;;;;;;7.20;1.73;;;9.30;88.30;;;;;;5051212;28;20029;-39
2022/11/04 04:57:20;;;;;;;12.85;1.85;;;9.30;88.50;;;;;;5052399;28;20031;-39
2022/11/04 04:59:46;;;;;;;2.60;1.63;;;9.20;88.60;;;;;;5052645;28;20025;-39
2022/11/04 05:02:12;;;;;;;6.60;1.63;;;9.20;88.90;;;;;;5052868;28;20469;-39
2022/11/04 05:04:37;;;;;;;8.52;1.83;;;9.20;88.80;;;;;;5051336;28;20029;-38
2022/11/04 05:07:03;;;;;;;9.25;2.25;;;9.10;88.90;;;;;;5052326;28;20101;-38
2022/11/04 05:09:28;;;;;;;10.55;1.88;;;9.10;89.10;;;;;;5051145;28;20025;-38
2022/11/04 05:11:54;;;;;;;10.98;3.13;;;9.10;89.20;;;;;;5052480;28;20035;-38
2022/11/04 05:14:20;;;;;;;5.38;1.75;;;9.10;89.20;;;;;;5054838;28;20552;-38
2022/11/04 05:16:45;;;;;;;8.07;1.50;;;9.10;89.10;;;;;;5056026;28;20036;-39
2022/11/04 05:19:11;;;;;;;4.85;1.30;;;9.10;89.00;;;;;;5055915;28;20036;-38
2022/11/04 05:21:36;;;;;;;16.35;2.28;;;9.00;89.00;;;;;;5056090;28;20107;-40
2022/11/04 05:24:02;;;;;;;7.20;1.65;;;9.10;89.10;;;;;;5056198;28;20131;-40
2022/11/04 05:26:28;;;;;;;13.02;2.38;;;9.00;89.10;;;;;;5055891;28;20040;-41
2022/11/04 05:28:53;;;;;;;3.85;1.52;;;9.00;89.10;;;;;;5055649;28;20044;-38
2022/11/04 05:31:19;;;;;;;6.57;2.10;;;9.00;89.10;;;;;;5055470;28;20358;-39
2022/11/04 05:33:45;;;;;;;18.55;2.78;;;9.00;89.10;;;;;;5055562;28;20025;-40
2022/11/04 05:36:15;;;;;;;11.20;2.47;;;9.00;89.10;;;;;;5055897;28;20024;-38
2022/11/04 05:38:41;;;;;;;7.22;2.42;;;9.00;89.10;;;;;;5055533;28;20028;-39
2022/11/04 05:41:10;;;;;;;17.55;2.78;;;9.00;89.10;;;;;;5055199;28;20029;-38
2022/11/04 05:43:35;;;;;;;6.43;3.63;;;9.10;89.00;;;;;;5056114;28;20512;-38
2022/11/04 05:46:01;;;;;;;10.57;3.47;;;9.10;88.80;;;;;;5055110;28;20108;-38
2022/11/04 05:48:27;;;;;;;5.75;2.60;;;9.00;88.90;;;;;;5055236;28;20029;-39
2022/11/04 05:50:54;;;;;;;7.07;2.50;;;9.10;88.90;;;;;;5055331;28;20120;-39
2022/11/04 05:53:19;;;;;;;9.45;2.58;;;9.10;88.80;;;;;;5055316;28;20044;-39
2022/11/04 05:55:45;;;;;;;3.38;2.30;;;9.10;88.70;;;;;;5055132;28;20052;-38
2022/11/04 05:58:11;;;;;;;12.20;4.53;;;9.20;88.30;;;;;;5054818;28;20059;-38
2022/11/04 06:00:36;;;;;;;6.93;2.47;;;9.20;88.30;;;;;;5055219;28;20024;-38
2022/11/04 06:03:02;;;;;;;8.48;2.42;;;9.20;88.20;;;;;;5054937;28;20074;-37
2022/11/04 06:05:28;;;;;;;4.55;2.20;;;9.30;88.00;;;;;;5054854;28;20041;-39
2022/11/04 06:07:55;;;;;;;7.72;2.20;;;9.30;87.80;;;;;;5053682;28;20021;-39
2022/11/04 06:10:22;;;;;;;11.23;2.35;;;9.30;87.90;;;;;;5053326;28;20021;-38
2022/11/04 06:12:47;;;;;;;9.23;2.85;;;9.20;88.00;;;;;;5054448;28;20033;-39
2022/11/04 06:15:13;;;;;;;8.20;2.92;;;9.30;87.90;;;;;;5055505;28;20025;-39
2022/11/04 06:17:39;;;;;;;9.32;2.85;;;9.30;87.90;;;;;;5054841;28;20029;-39
2022/11/04 16:16:26;;;;;;;17.35;3.72;;;11.50;82.60;;;;;;5112200;27;20101;-48
2022/11/04 16:18:51;;;;;;;13.75;5.47;;;11.50;83.50;;;;;;5111138;28;20387;-48
2022/11/04 16:21:35;;;;;;;8.38;4.50;;;11.50;83.90;;;;;;5111153;28;20028;-49
2022/11/04 16:24:22;;;;;;;13.55;3.95;;;11.50;84.40;;;;;;5111110;28;20024;-49
2022/11/04 16:26:48;;;;;;;8.98;4.53;;;11.40;84.60;;;;;;5111124;28;20552;-48
2022/11/04 16:29:23;;;;;;;14.13;4.05;;;11.50;85.10;;;;;;5110287;28;20099;-48
2022/11/04 16:32:22;;;;;;;15.73;6.43;;;11.40;85.10;;;;;;5111146;28;20468;-48
2022/11/04 16:34:50;;;;;;;16.88;5.20;;;11.40;85.40;;;;;;5110954;28;20411;-50
2022/11/04 16:37:16;;;;;;;18.80;6.93;;;11.40;85.30;;;;;;5111073;28;20016;-49
2022/11/04 16:39:44;;;;;;;9.90;5.38;;;11.50;85.20;;;;;;5110756;28;20379;-49
2022/11/04 16:42:14;;;;;;;16.27;7.13;;;11.50;84.80;;;;;;5110609;28;20023;-51
2022/11/04 16:44:48;;;;;;;14.95;6.10;;;11.40;84.80;;;;;;5110514;28;20074;-49
2022/11/04 16:47:15;;;;;;;13.50;6.10;;;11.40;85.20;;;;;;5110514;28;20031;-48
2022/11/04 16:49:41;;;;;;;8.82;5.10;;;11.30;85.70;;;;;;5111013;28;20046;-51
2022/11/04 16:52:13;;;;;;;13.80;5.65;;;11.30;86.00;;;;;;5110749;28;20028;-49
2022/11/04 16:54:39;;;;;;;15.88;6.75;;;11.30;86.10;;;;;;5110911;28;20069;-49
2022/11/04 16:57:10;;;;;;;13.98;6.45;;;11.30;86.40;;;;;;5110843;28;20039;-49
2022/11/04 16:59:36;;;;;;;10.25;5.55;;;11.30;85.80;;;;;;5110620;28;20468;-50
2022/11/04 17:02:27;;;;;;;13.80;6.75;;;11.30;86.10;;;;;;5110542;28;20024;-49
2022/11/04 17:04:52;;;;;;;21.83;7.38;;;11.30;86.20;;;;;;5110750;28;20020;-51
2022/11/04 17:07:18;;;;;;;14.30;7.47;;;11.30;86.50;;;;;;5110085;28;20485;-49
2022/11/04 17:09:44;;;;;;;17.75;9.05;;;11.30;86.50;;;;;;5110654;28;20097;-48
2022/11/04 17:12:10;;;;;;;18.38;9.70;;;11.20;86.20;;;;;;5110442;28;20463;-48
2022/11/04 17:14:36;;;;;;;15.77;8.82;;;11.30;86.10;;;;;;5109960;28;20048;-53
2022/11/04 17:17:02;;;;;;;17.45;9.55;;;11.30;86.00;;;;;;5110478;28;20024;-48
2022/11/04 17:19:29;;;;;;;16.38;9.27;;;11.30;85.80;;;;;;5110721;28;20039;-49
2022/11/04 17:22:00;;;;;;;19.52;9.05;;;11.30;85.40;;;;;;5092343;28;20028;-50
2022/11/04 17:24:27;;;;;;;20.65;9.90;;;11.30;85.60;;;;;;5110052;28;20488;-49
2022/11/04 17:26:52;;;;;;;26.80;15.82;;;11.30;85.80;;;;;;5097709;28;20036;-49
2022/11/04 17:29:18;;;;;;;16.35;9.82;;;11.20;85.80;;;;;;5096074;28;20140;-49
2022/11/04 17:31:44;;;;;;;22.35;11.02;;;11.10;86.10;;;;;;5096090;28;20107;-49
2022/11/04 17:34:09;;;;;;;25.08;9.68;;;11.00;86.30;;;;;;5096073;28;20481;-49
2022/11/04 17:36:35;;;;;;;16.83;9.73;;;11.10;86.30;;;;;;5096045;28;20439;-48
2022/11/04 17:39:01;;;;;;;27.30;10.90;;;11.00;86.20;;;;;;5095793;28;20095;-48
2022/11/04 17:44:11;;;;;;;19.70;11.00;;;10.90;86.20;;;;;;5096329;28;20035;-47
2022/11/04 17:46:37;;;;;;;23.95;12.35;;;10.90;86.40;;;;;;5094568;28;20020;-47
2022/11/04 17:49:16;;;;;;;19.42;12.48;;;10.90;86.50;;;;;;5095698;28;20101;-47
2022/11/04 17:51:46;;;;;;;22.40;10.25;;;11.00;86.70;;;;;;5095628;28;20016;-50
2022/11/04 17:54:12;;;;;;;18.63;10.68;;;10.90;86.10;;;;;;5095944;28;20055;-52
2022/11/04 17:56:39;;;;;;;26.92;12.23;;;10.90;86.40;;;;;;5095691;28;20081;-50
2022/11/04 17:59:05;;;;;;;23.50;11.02;;;10.80;86.40;;;;;;5096478;28;20024;-49
2022/11/04 18:01:33;;;;;;;21.15;13.05;;;10.80;86.40;;;;;;5094731;28;20050;-53
2022/11/04 18:03:59;;;;;;;27.30;12.50;;;10.80;86.60;;;;;;5095727;28;20024;-49
2022/11/04 18:06:28;;;;;;;24.75;12.88;;;10.80;86.60;;;;;;5095660;28;20035;-52
2022/11/04 18:08:55;;;;;;;26.38;13.00;;;10.70;86.80;;;;;;5095770;28;20082;-49
2022/11/04 18:14:08;;;;;;;25.92;12.70;;;10.50;87.30;;;;;;5097368;28;20101;-48
2022/11/04 18:16:34;;;;;;;21.65;12.32;;;10.40;87.40;;;;;;5095770;28;20052;-50
2022/11/04 18:19:00;;;;;;;28.05;12.57;;;10.30;87.90;;;;;;5095248;28;20380;-50
2022/11/04 18:21:27;;;;;;;28.10;13.30;;;10.30;88.20;;;;;;5095310;28;20043;-52
2022/11/04 18:23:54;;;;;;;23.58;13.63;;;10.30;88.10;;;;;;5095620;28;20584;-48
2022/11/04 18:26:20;;;;;;;34.72;15.20;;;10.30;88.00;;;;;;5095141;28;20384;-47
2022/11/04 18:28:46;;;;;;;27.20;13.88;;;10.30;88.20;;;;;;5095807;28;20542;-47
2022/11/04 18:31:26;;;;;;;29.38;14.30;;;10.20;88.20;;;;;;5096613;28;20028;-47
2022/11/04 18:33:52;;;;;;;23.92;15.45;;;10.10;88.60;;;;;;5096379;28;20024;-47
2022/11/04 18:36:18;;;;;;;28.92;15.00;;;10.10;88.80;;;;;;5095218;28;20027;-47
2022/11/04 18:38:45;;;;;;;26.13;14.52;;;10.00;88.90;;;;;;5093891;28;20376;-48
2022/11/04 18:41:13;;;;;;;35.17;15.32;;;10.00;89.10;;;;;;5093813;28;20437;-48
2022/11/04 18:43:39;;;;;;;27.17;14.90;;;9.90;89.20;;;;;;5093681;28;20051;-50
2022/11/04 18:46:09;;;;;;;30.17;15.55;;;9.90;89.30;;;;;;5094683;28;20028;-49
2022/11/04 18:48:36;;;;;;;29.98;15.75;;;9.90;89.50;;;;;;5094651;28;20028;-50
2022/11/04 18:51:04;;;;;;;26.55;13.85;;;9.80;89.40;;;;;;5094931;28;20111;-48
2022/11/04 18:53:29;;;;;;;30.70;15.45;;;9.80;89.70;;;;;;5093725;28;20052;-50
2022/11/04 18:56:01;;;;;;;27.73;15.50;;;9.80;89.80;;;;;;5094656;28;20070;-50
2022/11/04 18:58:31;;;;;;;25.75;15.85;;;9.80;89.80;;;;;;5094626;28;20081;-48
2022/11/04 19:00:56;;;;;;;30.90;16.25;;;9.70;89.80;;;;;;5094595;28;20020;-48
2022/11/04 19:03:22;;;;;;;38.53;17.95;;;9.60;90.10;;;;;;5094687;28;20081;-48
2022/11/04 19:05:48;;;;;;;23.83;14.07;;;9.50;90.10;;;;;;5094648;28;20463;-48
2022/11/04 19:08:14;;;;;;;31.52;18.50;;;9.50;90.30;;;;;;5094871;28;20027;-48
2022/11/04 19:10:40;;;;;;;34.30;17.00;;;9.50;90.50;;;;;;5094327;28;20058;-48
2022/11/04 19:13:17;;;;;;;33.60;16.65;;;9.50;90.60;;;;;;5094105;28;20036;-50
2022/11/04 19:15:43;;;;;;;32.78;16.52;;;9.50;90.70;;;;;;5093913;28;20072;-49
2022/11/04 19:18:09;;;;;;;33.55;19.88;;;9.50;90.80;;;;;;5094337;28;20089;-51
2022/11/04 19:20:35;;;;;;;41.58;20.67;;;9.40;90.90;;;;;;5094389;28;20048;-49
2022/11/04 19:23:02;;;;;;;36.00;17.30;;;9.40;91.00;;;;;;5094466;28;20027;-50
2022/11/04 19:25:28;;;;;;;36.85;16.98;;;9.40;91.00;;;;;;5093965;28;20417;-48
2022/11/04 19:27:53;;;;;;;34.80;18.33;;;9.40;91.00;;;;;;5094139;28;20056;-49
2022/11/04 19:30:19;;;;;;;32.95;17.85;;;9.30;91.00;;;;;;5094219;28;20060;-48
2022/11/04 19:32:45;;;;;;;33.13;19.52;;;9.30;91.10;;;;;;5094269;28;20032;-49
2022/11/04 19:35:10;;;;;;;33.97;17.35;;;9.30;91.20;;;;;;5093839;28;20093;-49
2022/11/04 19:37:36;;;;;;;31.50;18.20;;;9.20;91.30;;;;;;5094313;28;20073;-49
2022/11/04 19:40:03;;;;;;;36.55;19.73;;;9.20;91.40;;;;;;5093933;28;20024;-50
2022/11/04 19:45:13;;;;;;;40.25;20.33;;;9.10;91.50;;;;;;5093945;28;20074;-49
2022/11/04 19:47:39;;;;;;;36.30;20.55;;;9.10;91.70;;;;;;5093829;28;20020;-48
2022/11/04 19:50:05;;;;;;;38.05;20.27;;;9.10;91.70;;;;;;5093458;28;20388;-48
2022/11/04 19:52:31;;;;;;;30.05;17.85;;;9.10;91.80;;;;;;5093649;28;20031;-51
2022/11/04 19:54:56;;;;;;;31.40;17.90;;;9.10;91.90;;;;;;5093486;28;20054;-49
2022/11/04 19:57:22;;;;;;;32.30;18.55;;;9.10;91.90;;;;;;5093467;28;20027;-49
2022/11/04 19:59:48;;;;;;;37.90;19.30;;;9.10;91.90;;;;;;5093304;28;20055;-48
2022/11/04 20:02:14;;;;;;;28.60;18.23;;;9.10;91.90;;;;;;5093521;28;20461;-47
2022/11/04 20:04:40;;;;;;;35.63;19.35;;;9.10;91.70;;;;;;5093347;28;20076;-52
2022/11/04 20:07:05;;;;;;;35.75;17.95;;;9.10;91.50;;;;;;5093270;28;20095;-48
2022/11/04 20:09:32;;;;;;;25.83;15.70;;;9.10;91.60;;;;;;5093531;28;20471;-50
2022/11/04 20:14:41;;;;;;;30.98;16.48;;;9.00;91.60;;;;;;5093347;28;20054;-49
2022/11/04 20:17:07;;;;;;;28.00;16.33;;;8.90;91.50;;;;;;5093001;28;20526;-49
2022/11/04 20:19:34;;;;;;;25.92;17.17;;;8.80;91.70;;;;;;5093182;28;20024;-48
2022/11/04 20:21:59;;;;;;;55.67;34.60;;;8.80;91.80;;;;;;5093764;28;20059;-51
2022/11/04 20:24:25;;;;;;;30.33;16.65;;;8.80;91.90;;;;;;5093902;28;20423;-51
2022/11/04 20:26:51;;;;;;;31.15;19.02;;;8.80;92.00;;;;;;5093404;28;20468;-52
2022/11/04 20:29:16;;;;;;;31.73;18.80;;;8.80;92.00;;;;;;5093041;28;20020;-49
2022/11/04 20:31:43;;;;;;;29.20;18.20;;;8.80;91.90;;;;;;5093251;28;20082;-48
2022/11/04 20:34:10;;;;;;;32.53;18.40;;;8.80;92.00;;;;;;5093194;28;20028;-50
2022/11/04 20:36:37;;;;;;;24.33;16.33;;;8.80;92.00;;;;;;5093795;28;20016;-49
2022/11/04 20:39:22;;;;;;;24.17;15.65;;;8.80;92.00;;;;;;5093249;28;20097;-49
2022/11/04 20:41:48;;;;;;;26.85;16.52;;;8.80;92.00;;;;;;5093299;28;20482;-48
2022/11/04 20:44:14;;;;;;;25.23;16.00;;;8.80;92.10;;;;;;5093418;28;20024;-48
2022/11/04 20:46:41;;;;;;;31.85;16.92;;;8.80;92.10;;;;;;5091906;28;20036;-49
2022/11/04 20:49:06;;;;;;;35.33;17.58;;;8.80;92.00;;;;;;5093269;28;20494;-49
2022/11/04 20:51:43;;;;;;;33.67;17.75;;;8.80;92.20;;;;;;5093355;28;20028;-49
2022/11/04 20:54:11;;;;;;;37.50;18.77;;;8.90;92.30;;;;;;5092843;28;20117;-49
2022/11/04 20:56:38;;;;;;;36.90;19.38;;;8.90;92.30;;;;;;5093368;28;20165;-48
2022/11/04 20:59:05;;;;;;;29.17;19.08;;;9.00;92.30;;;;;;5093352;28;20472;-48
2022/11/04 21:01:35;;;;;;;34.10;20.38;;;9.00;92.10;;;;;;5094488;28;20160;-47
2022/11/04 21:04:03;;;;;;;48.78;22.02;;;9.10;92.10;;;;;;5097344;28;20375;-48
2022/11/04 21:06:30;;;;;;;39.35;21.42;;;9.10;92.00;;;;;;5097016;28;20042;-48
2022/11/04 21:08:57;;;;;;;33.20;20.33;;;9.20;91.90;;;;;;5096737;28;20375;-50
2022/11/04 21:11:23;;;;;;;35.53;20.73;;;9.30;92.00;;;;;;5096645;28;20016;-49
2022/11/04 21:13:49;;;;;;;39.50;18.88;;;9.30;91.80;;;;;;5096566;28;20021;-48
2022/11/04 21:16:15;;;;;;;36.08;17.65;;;9.40;91.80;;;;;;5096985;28;20024;-47
2022/11/04 21:18:42;;;;;;;30.75;17.75;;;9.40;91.50;;;;;;5096792;28;20048;-51
2022/11/04 21:21:10;;;;;;;36.67;19.42;;;9.50;91.40;;;;;;5096737;28;20024;-49
2022/11/04 21:23:35;;;;;;;31.85;18.65;;;9.60;91.20;;;;;;5096291;28;20066;-49
2022/11/04 21:26:21;;;;;;;33.20;17.92;;;9.70;90.90;;;;;;5097023;28;20020;-48
2022/11/04 21:28:48;;;;;;;33.60;18.00;;;9.60;90.60;;;;;;5096822;28;20031;-50
2022/11/04 21:31:13;;;;;;;29.20;16.17;;;9.70;90.60;;;;;;5095217;28;20077;-49
2022/11/04 21:33:39;;;;;;;27.05;15.90;;;9.70;90.50;;;;;;5096178;28;20462;-48
2022/11/04 21:36:07;;;;;;;31.42;17.25;;;9.60;90.40;;;;;;5096286;28;20028;-50
2022/11/04 21:38:33;;;;;;;27.90;16.27;;;9.60;90.50;;;;;;5096145;28;20476;-48
2022/11/04 21:41:10;;;;;;;27.65;16.90;;;9.70;90.50;;;;;;5096182;28;20107;-49
2022/11/04 21:43:36;;;;;;;37.30;18.20;;;9.70;90.40;;;;;;5097550;28;20031;-50
2022/11/04 21:46:10;;;;;;;32.33;16.40;;;9.80;90.10;;;;;;5096309;28;20087;-50
2022/11/04 21:48:36;;;;;;;33.00;17.65;;;9.70;90.10;;;;;;5095844;28;20388;-49
2022/11/04 21:51:08;;;;;;;31.70;16.35;;;9.60;90.10;;;;;;5094751;28;20021;-50
2022/11/04 21:53:34;;;;;;;32.50;16.90;;;9.60;90.10;;;;;;5096187;28;20024;-49
2022/11/04 21:56:11;;;;;;;36.25;16.27;;;9.50;90.00;;;;;;5095998;28;20032;-48
2022/11/04 21:58:37;;;;;;;30.08;17.80;;;9.50;90.30;;;;;;5094676;28;20032;-48
2022/11/04 22:01:08;;;;;;;38.50;17.58;;;9.40;90.40;;;;;;5095944;28;20024;-50
2022/11/04 22:03:34;;;;;;;28.27;16.42;;;9.40;90.50;;;;;;5096137;28;20061;-48
2022/11/04 22:06:08;;;;;;;28.65;16.38;;;9.40;90.50;;;;;;5095654;28;20110;-52
2022/11/04 22:08:34;;;;;;;28.00;15.23;;;9.30;90.50;;;;;;5095600;28;20031;-49
2022/11/04 22:11:18;;;;;;;38.35;16.67;;;9.30;90.50;;;;;;5094241;28;20111;-54
2022/11/04 22:13:44;;;;;;;26.23;13.63;;;9.30;90.60;;;;;;5095521;28;20078;-49
2022/11/04 22:16:11;;;;;;;24.15;14.45;;;9.30;90.40;;;;;;5095283;28;20020;-50
2022/11/04 22:18:36;;;;;;;26.30;14.05;;;9.40;90.20;;;;;;5095309;28;20016;-48
2022/11/04 22:21:05;;;;;;;23.85;13.23;;;9.40;90.10;;;;;;5095364;28;20020;-49
2022/11/04 22:23:34;;;;;;;21.63;12.57;;;9.40;90.00;;;;;;5095638;28;20355;-49
2022/11/04 22:26:07;;;;;;;29.10;13.98;;;9.40;89.90;;;;;;5095395;28;20020;-51
2022/11/04 22:28:33;;;;;;;24.75;12.52;;;9.30;89.60;;;;;;5095500;28;20123;-50
2022/11/04 22:31:11;;;;;;;22.98;12.80;;;9.20;89.60;;;;;;5095272;28;20056;-49
2022/11/04 22:33:37;;;;;;;24.88;11.10;;;9.20;89.70;;;;;;5095335;28;20032;-49
2022/11/04 22:36:04;;;;;;;21.42;11.82;;;9.10;89.60;;;;;;5093894;28;20061;-48
2022/11/04 22:38:33;;;;;;;23.23;10.80;;;9.10;89.70;;;;;;5094068;28;20507;-49
2022/11/04 22:41:01;;;;;;;22.55;11.65;;;9.00;90.00;;;;;;5094921;28;20067;-49
2022/11/04 22:43:27;;;;;;;24.92;10.77;;;8.90;90.00;;;;;;5093798;28;20024;-48
2022/11/04 22:45:54;;;;;;;21.38;10.65;;;8.80;90.10;;;;;;5093748;28;20035;-47
2022/11/04 22:48:20;;;;;;;20.25;10.40;;;8.80;90.40;;;;;;5094913;28;20024;-50
2022/11/04 22:50:53;;;;;;;22.13;9.88;;;8.70;90.30;;;;;;5094873;28;20167;-49
2022/11/04 22:53:19;;;;;;;16.15;9.80;;;8.60;90.70;;;;;;5094829;28;20025;-50
2022/11/04 22:55:45;;;;;;;16.92;10.60;;;8.70;90.50;;;;;;5093712;28;20050;-50
2022/11/04 22:58:11;;;;;;;15.45;10.10;;;8.60;90.60;;;;;;5093453;28;20027;-50
2022/11/04 23:00:37;;;;;;;17.80;10.25;;;8.60;90.60;;;;;;5094822;28;20020;-49
2022/11/04 23:03:03;;;;;;;17.27;10.52;;;8.50;90.80;;;;;;5093502;28;20031;-50
2022/11/04 23:05:31;;;;;;;16.20;11.00;;;8.50;90.80;;;;;;5093456;28;20046;-51
2022/11/04 23:07:59;;;;;;;21.70;10.70;;;8.50;90.90;;;;;;5094484;28;20039;-53
2022/11/04 23:18:40;;;;;;;16.27;10.00;;;8.30;91.20;;;;;;5095039;28;20105;-49
2022/11/04 23:26:35;;;;;;;21.95;11.43;;;8.20;91.50;;;;;;5094696;28;20162;-49
2022/11/04 23:31:45;;;;;;;19.17;10.50;;;8.10;91.50;;;;;;5094111;28;20046;-50
2022/11/04 23:37:12;;;;;;;21.33;11.93;;;8.00;91.70;;;;;;5094467;28;20085;-49
2022/11/04 23:39:45;;;;;;;24.00;11.10;;;7.90;91.80;;;;;;5094134;28;20024;-49
2022/11/04 23:42:16;;;;;;;21.38;12.00;;;7.80;92.00;;;;;;5093979;28;20027;-48
